sensor_id;sensor_type;location;lat;lon;timestamp;pressure;altitude;pressure_sealevel;temperature;humidity
58644;BME280;44411;49.994;8.660;2022-11-02T00:01:38;100581.66;;;9.11;83.33
58644;BME280;44411;49.994;8.660;2022-11-02T00:04:04;100593.69;;;9.20;83.14
58644;BME280;44411;49.994;8.660;2022-11-02T00:06:29;100580.34;;;9.19;82.66
58644;BME280;44411;49.994;8.660;2022-11-02T00:08:55;100573.53;;;9.27;83.03
58644;BME280;44411;49.994;8.660;2022-11-02T00:11:20;100578.44;;;9.30;82.84
58644;BME280;44411;49.994;8.660;2022-11-02T00:13:45;100575.16;;;9.33;82.23
58644;BME280;44411;49.994;8.660;2022-11-02T00:16:12;100573.00;;;9.35;82.67
58644;BME280;44411;49.994;8.660;2022-11-02T00:18:41;100573.28;;;9.33;82.68
58644;BME280;44411;49.994;8.660;2022-11-02T00:21:10;100577.59;;;9.29;82.88
58644;BME280;44411;49.994;8.660;2022-11-02T00:23:35;100577.09;;;9.32;82.49
58644;BME280;44411;49.994;8.660;2022-11-02T00:26:01;100577.59;;;9.29;82.50
58644;BME280;44411;49.994;8.660;2022-11-02T00:28:27;100582.78;;;9.31;83.16
58644;BME280;44411;49.994;8.660;2022-11-02T00:30:53;100584.72;;;9.35;82.57
58644;BME280;44411;49.994;8.660;2022-11-02T00:33:18;100582.50;;;9.27;82.97
58644;BME280;44411;49.994;8.660;2022-11-02T00:35:44;100576.28;;;9.37;82.60
58644;BME280;44411;49.994;8.660;2022-11-02T00:38:10;100581.44;;;9.33;82.36
58644;BME280;44411;49.994;8.660;2022-11-02T00:40:35;100580.63;;;9.33;82.68
58644;BME280;44411;49.994;8.660;2022-11-02T00:43:00;100578.44;;;9.25;82.92
58644;BME280;44411;49.994;8.660;2022-11-02T00:45:26;100584.44;;;9.32;82.88
58644;BME280;44411;49.994;8.660;2022-11-02T00:47:51;100571.38;;;9.39;82.75
58644;BME280;44411;49.994;8.660;2022-11-02T00:50:16;100573.81;;;9.30;83.25
58644;BME280;44411;49.994;8.660;2022-11-02T00:52:42;100570.53;;;9.28;83.09
58644;BME280;44411;49.994;8.660;2022-11-02T00:55:08;100573.84;;;9.40;82.05
58644;BME280;44411;49.994;8.660;2022-11-02T00:57:36;100565.38;;;9.37;82.49
58644;BME280;44411;49.994;8.660;2022-11-02T07:03:03;100729.56;;;8.74;89.66
58644;BME280;44411;49.994;8.660;2022-11-02T07:05:29;100728.41;;;8.65;90.03
58644;BME280;44411;49.994;8.660;2022-11-02T07:07:54;100741.75;;;8.67;89.81
58644;BME280;44411;49.994;8.660;2022-11-02T07:10:20;100738.22;;;8.66;89.99
58644;BME280;44411;49.994;8.660;2022-11-02T07:12:45;100743.09;;;8.64;90.09
58644;BME280;44411;49.994;8.660;2022-11-02T07:15:11;100743.38;;;8.68;90.24
58644;BME280;44411;49.994;8.660;2022-11-02T07:17:40;100756.50;;;8.76;90.15
58644;BME280;44411;49.994;8.660;2022-11-02T07:20:06;100761.13;;;8.75;89.85
58644;BME280;44411;49.994;8.660;2022-11-02T07:22:37;100768.22;;;8.76;90.27
58644;BME280;44411;49.994;8.660;2022-11-02T07:25:07;100767.69;;;8.79;89.92
58644;BME280;44411;49.994;8.660;2022-11-02T07:27:38;100768.28;;;8.87;90.11
58644;BME280;44411;49.994;8.660;2022-11-02T07:30:05;100768.88;;;8.94;89.57
58644;BME280;44411;49.994;8.660;2022-11-02T07:32:37;100773.81;;;8.97;89.44
58644;BME280;44411;49.994;8.660;2022-11-02T07:35:03;100768.34;;;9.02;89.21
58644;BME280;44411;49.994;8.660;2022-11-02T07:37:28;100783.66;;;9.08;89.20
58644;BME280;44411;49.994;8.660;2022-11-02T07:39:54;100780.16;;;9.18;88.94
58644;BME280;44411;49.994;8.660;2022-11-02T07:42:19;100784.28;;;9.26;88.35
58644;BME280;44411;49.994;8.660;2022-11-02T07:44:44;100775.28;;;9.25;88.44
58644;BME280;44411;49.994;8.660;2022-11-02T07:47:10;100788.13;;;9.35;88.44
58644;BME280;44411;49.994;8.660;2022-11-02T07:49:35;100787.59;;;9.38;87.98
58644;BME280;44411;49.994;8.660;2022-11-02T07:52:00;100792.00;;;9.49;87.35
58644;BME280;44411;49.994;8.660;2022-11-02T07:54:25;100791.22;;;9.54;87.32
58644;BME280;44411;49.994;8.660;2022-11-02T07:56:51;100791.53;;;9.63;87.68
58644;BME280;44411;49.994;8.660;2022-11-02T07:59:16;100796.44;;;9.66;87.06
58644;BME280;44411;49.994;8.660;2022-11-02T08:01:41;100800.56;;;9.78;86.48
58644;BME280;44411;49.994;8.660;2022-11-02T08:04:07;100804.97;;;9.90;85.71
58644;BME280;44411;49.994;8.660;2022-11-02T08:06:33;100788.06;;;9.98;85.78
58644;BME280;44411;49.994;8.660;2022-11-02T08:08:59;100783.72;;;10.02;85.17
58644;BME280;44411;49.994;8.660;2022-11-02T08:11:24;100793.56;;;10.18;84.88
58644;BME280;44411;49.994;8.660;2022-11-02T08:13:50;100799.34;;;10.32;84.34
58644;BME280;44411;49.994;8.660;2022-11-02T08:16:15;100803.69;;;10.38;84.29
58644;BME280;44411;49.994;8.660;2022-11-02T08:18:40;100803.97;;;10.47;84.06
58644;BME280;44411;49.994;8.660;2022-11-02T08:21:06;100805.09;;;10.51;83.56
58644;BME280;44411;49.994;8.660;2022-11-02T08:23:31;100797.19;;;10.50;83.45
58644;BME280;44411;49.994;8.660;2022-11-02T08:25:57;100813.00;;;10.73;82.50
58644;BME280;44411;49.994;8.660;2022-11-02T08:28:29;100810.50;;;10.87;81.85
58644;BME280;44411;49.994;8.660;2022-11-02T08:31:00;100811.31;;;10.93;81.60
58644;BME280;44411;49.994;8.660;2022-11-02T08:33:26;100824.94;;;11.13;80.81
58644;BME280;44411;49.994;8.660;2022-11-02T08:35:52;100824.94;;;11.13;81.22
58644;BME280;44411;49.994;8.660;2022-11-02T08:38:18;100813.44;;;11.32;80.44
58644;BME280;44411;49.994;8.660;2022-11-02T08:40:46;100827.56;;;11.49;79.65
58644;BME280;44411;49.994;8.660;2022-11-02T08:43:13;100826.38;;;11.71;79.10
58644;BME280;44411;49.994;8.660;2022-11-02T08:45:41;100829.06;;;11.92;77.60
58644;BME280;44411;49.994;8.660;2022-11-02T08:48:07;100837.47;;;12.00;77.57
58644;BME280;44411;49.994;8.660;2022-11-02T08:50:33;100833.09;;;12.04;77.18
58644;BME280;44411;49.994;8.660;2022-11-02T08:52:58;100823.56;;;11.97;77.22
58644;BME280;44411;49.994;8.660;2022-11-02T08:55:24;100836.13;;;12.03;76.00
58644;BME280;44411;49.994;8.660;2022-11-02T08:57:56;100840.50;;;11.99;75.25
58644;BME280;44411;49.994;8.660;2022-11-02T09:00:27;100845.94;;;12.04;74.96
58644;BME280;44411;49.994;8.660;2022-11-02T09:03:01;100834.50;;;11.97;74.67
58644;BME280;44411;49.994;8.660;2022-11-02T09:05:28;100830.31;;;12.09;74.52
58644;BME280;44411;49.994;8.660;2022-11-02T09:07:56;100835.47;;;12.16;73.18
58644;BME280;44411;49.994;8.660;2022-11-02T09:10:22;100820.47;;;12.14;73.94
58644;BME280;44411;49.994;8.660;2022-11-02T09:12:47;100829.97;;;12.26;72.67
58644;BME280;44411;49.994;8.660;2022-11-02T09:15:12;100826.34;;;12.31;71.30
58644;BME280;44411;49.994;8.660;2022-11-02T09:17:38;100831.69;;;12.52;71.75
58644;BME280;44411;49.994;8.660;2022-11-02T09:20:04;100843.22;;;12.83;71.47
58644;BME280;44411;49.994;8.660;2022-11-02T09:22:29;100842.69;;;12.81;70.71
58644;BME280;44411;49.994;8.660;2022-11-02T09:24:54;100841.34;;;12.73;69.72
58644;BME280;44411;49.994;8.660;2022-11-02T09:27:20;100833.38;;;12.77;69.87
58644;BME280;44411;49.994;8.660;2022-11-02T09:29:45;100848.88;;;13.21;69.63
58644;BME280;44411;49.994;8.660;2022-11-02T09:32:10;100843.03;;;13.28;68.77
58644;BME280;44411;49.994;8.660;2022-11-02T09:34:36;100849.44;;;13.18;68.04
58644;BME280;44411;49.994;8.660;2022-11-02T09:37:01;100849.13;;;13.24;67.93
58644;BME280;44411;49.994;8.660;2022-11-02T09:39:27;100835.00;;;13.12;67.57
58644;BME280;44411;49.994;8.660;2022-11-02T09:42:26;100848.56;;;12.93;67.73
58644;BME280;44411;49.994;8.660;2022-11-02T09:44:58;100853.00;;;12.89;68.10
58644;BME280;44411;49.994;8.660;2022-11-02T09:47:27;100845.91;;;12.88;67.87
58644;BME280;44411;49.994;8.660;2022-11-02T09:49:55;100853.66;;;13.10;67.38
58644;BME280;44411;49.994;8.660;2022-11-02T09:52:32;100857.03;;;13.26;66.89
58644;BME280;44411;49.994;8.660;2022-11-02T09:55:02;100856.44;;;13.29;66.42
58644;BME280;44411;49.994;8.660;2022-11-02T09:57:32;100853.50;;;13.50;65.54
58644;BME280;44411;49.994;8.660;2022-11-02T09:59:57;100858.75;;;13.46;65.58
58644;BME280;44411;49.994;8.660;2022-11-02T10:15:49;100858.25;;;13.44;64.25
58644;BME280;44411;49.994;8.660;2022-11-02T10:18:19;100854.75;;;13.38;62.85
58644;BME280;44411;49.994;8.660;2022-11-02T10:20:52;100866.34;;;13.54;63.50
58644;BME280;44411;49.994;8.660;2022-11-02T10:23:29;100860.13;;;13.49;62.76
58644;BME280;44411;49.994;8.660;2022-11-02T10:25:56;100863.38;;;13.51;62.40
58644;BME280;44411;49.994;8.660;2022-11-02T10:28:26;100883.38;;;13.51;61.15
58644;BME280;44411;49.994;8.660;2022-11-02T10:30:53;100889.28;;;13.39;61.91
58644;BME280;44411;49.994;8.660;2022-11-02T10:33:24;100883.34;;;13.56;61.23
58644;BME280;44411;49.994;8.660;2022-11-02T10:36:19;100883.88;;;13.82;60.94
58644;BME280;44411;49.994;8.660;2022-11-02T10:39:04;100870.31;;;13.67;60.82
58644;BME280;44411;49.994;8.660;2022-11-02T10:41:56;100887.97;;;14.04;60.03
58644;BME280;44411;49.994;8.660;2022-11-02T10:47:19;100881.69;;;13.26;62.22
58644;BME280;44411;49.994;8.660;2022-11-02T10:52:39;100894.25;;;13.37;62.75
58644;BME280;44411;49.994;8.660;2022-11-02T10:55:08;100877.66;;;13.18;64.12
58644;BME280;44411;49.994;8.660;2022-11-02T10:57:38;100880.34;;;13.23;63.70
58644;BME280;44411;49.994;8.660;2022-11-02T11:03:10;100878.78;;;13.47;61.20
58644;BME280;44411;49.994;8.660;2022-11-02T11:05:55;100877.28;;;13.59;60.17
58644;BME280;44411;49.994;8.660;2022-11-02T11:08:26;100876.38;;;13.64;60.71
58644;BME280;44411;49.994;8.660;2022-11-02T11:10:52;100868.53;;;14.00;59.92
58644;BME280;44411;49.994;8.660;2022-11-02T11:13:22;100864.72;;;13.77;61.24
58644;BME280;44411;49.994;8.660;2022-11-02T11:15:50;100856.81;;;13.95;62.15
58644;BME280;44411;49.994;8.660;2022-11-02T11:18:19;100867.06;;;13.65;61.51
58644;BME280;44411;49.994;8.660;2022-11-02T11:20:46;100855.34;;;13.35;62.35
58644;BME280;44411;49.994;8.660;2022-11-02T11:23:18;100873.03;;;13.19;61.93
58644;BME280;44411;49.994;8.660;2022-11-02T11:33:52;100844.97;;;14.18;59.85
58644;BME280;44411;49.994;8.660;2022-11-02T11:36:25;100854.22;;;14.80;57.44
58644;BME280;44411;49.994;8.660;2022-11-02T11:38:53;100845.91;;;14.98;57.49
58644;BME280;44411;49.994;8.660;2022-11-02T11:41:20;100820.91;;;15.42;56.12
58644;BME280;44411;49.994;8.660;2022-11-02T11:43:47;100839.47;;;15.50;54.60
58644;BME280;44411;49.994;8.660;2022-11-02T11:46:14;100851.81;;;15.80;52.57
58644;BME280;44411;49.994;8.660;2022-11-02T11:48:54;100848.94;;;15.58;52.07
58644;BME280;44411;49.994;8.660;2022-11-02T11:51:34;100855.97;;;15.50;51.17
58644;BME280;44411;49.994;8.660;2022-11-02T11:54:23;100854.09;;;15.31;53.89
58644;BME280;44411;49.994;8.660;2022-11-02T11:56:56;100850.44;;;14.18;54.79
58644;BME280;44411;49.994;8.660;2022-11-02T11:59:24;100840.66;;;14.12;55.24
58644;BME280;44411;49.994;8.660;2022-11-02T12:01:54;100848.78;;;13.79;55.83
58644;BME280;44411;49.994;8.660;2022-11-02T12:04:32;100834.63;;;13.91;57.38
58644;BME280;44411;49.994;8.660;2022-11-02T12:10:00;100847.41;;;14.39;53.92
58644;BME280;44411;49.994;8.660;2022-11-02T12:18:07;100834.53;;;14.53;52.98
58644;BME280;44411;49.994;8.660;2022-11-02T12:20:58;100830.28;;;14.09;54.34
58644;BME280;44411;49.994;8.660;2022-11-02T12:29:05;100828.47;;;13.80;53.94
58644;BME280;44411;49.994;8.660;2022-11-02T12:31:36;100817.06;;;14.11;54.38
58644;BME280;44411;49.994;8.660;2022-11-02T12:39:07;100842.75;;;15.80;48.62
58644;BME280;44411;49.994;8.660;2022-11-02T12:47:18;100822.72;;;15.88;49.01
58644;BME280;44411;49.994;8.660;2022-11-02T12:52:41;100826.72;;;16.55;45.32
58644;BME280;44411;49.994;8.660;2022-11-02T12:55:20;100807.78;;;16.17;47.83
58644;BME280;44411;49.994;8.660;2022-11-02T12:57:48;100792.97;;;16.26;48.19
58644;BME280;44411;49.994;8.660;2022-11-02T13:00:20;100788.66;;;16.57;47.92
58644;BME280;44411;49.994;8.660;2022-11-02T13:05:31;100794.28;;;16.29;47.35
58644;BME280;44411;49.994;8.660;2022-11-02T13:08:04;100798.44;;;16.63;47.66
58644;BME280;44411;49.994;8.660;2022-11-02T13:10:39;100796.47;;;17.17;46.11
58644;BME280;44411;49.994;8.660;2022-11-02T13:13:12;100799.00;;;15.64;46.85
58644;BME280;44411;49.994;8.660;2022-11-02T13:15:42;100815.31;;;15.88;45.21
58644;BME280;44411;49.994;8.660;2022-11-02T13:18:23;100799.13;;;16.09;45.51
58644;BME280;44411;49.994;8.660;2022-11-02T13:20:56;100801.06;;;16.23;47.13
58644;BME280;44411;49.994;8.660;2022-11-02T13:23:31;100806.13;;;15.93;45.84
58644;BME280;44411;49.994;8.660;2022-11-02T13:26:01;100793.28;;;16.25;46.65
58644;BME280;44411;49.994;8.660;2022-11-02T13:31:00;100797.47;;;15.86;46.99
58644;BME280;44411;49.994;8.660;2022-11-02T13:33:49;100799.81;;;15.92;46.28
58644;BME280;44411;49.994;8.660;2022-11-02T13:36:17;100800.22;;;15.86;47.40
58644;BME280;44411;49.994;8.660;2022-11-02T13:39:16;100794.44;;;15.46;47.95
58644;BME280;44411;49.994;8.660;2022-11-02T13:49:46;100773.16;;;15.38;47.31
58644;BME280;44411;49.994;8.660;2022-11-02T13:52:15;100779.72;;;15.92;47.54
58644;BME280;44411;49.994;8.660;2022-11-02T13:54:48;100781.50;;;16.10;45.03
58644;BME280;44411;49.994;8.660;2022-11-02T13:57:30;100773.91;;;16.30;44.89
58644;BME280;44411;49.994;8.660;2022-11-02T13:59:57;100771.00;;;16.35;47.33
58644;BME280;44411;49.994;8.660;2022-11-02T14:02:23;100779.41;;;16.30;45.87
58644;BME280;44411;49.994;8.660;2022-11-02T14:04:49;100770.88;;;16.18;47.76
58644;BME280;44411;49.994;8.660;2022-11-02T14:09:49;100779.44;;;15.80;48.75
58644;BME280;44411;49.994;8.660;2022-11-02T14:28:33;100780.78;;;15.41;48.83
58644;BME280;44411;49.994;8.660;2022-11-02T14:39:17;100776.41;;;15.40;47.95
58644;BME280;44411;49.994;8.660;2022-11-02T14:47:12;100775.88;;;15.65;46.73
58644;BME280;44411;49.994;8.660;2022-11-02T14:49:49;100776.09;;;15.00;48.11
58644;BME280;44411;49.994;8.660;2022-11-02T14:52:32;100779.75;;;14.81;49.42
58644;BME280;44411;49.994;8.660;2022-11-02T14:57:48;100764.88;;;14.82;49.65
58644;BME280;44411;49.994;8.660;2022-11-02T15:00:19;100770.53;;;14.39;49.82
58644;BME280;44411;49.994;8.660;2022-11-02T15:02:45;100770.06;;;14.51;51.53
58644;BME280;44411;49.994;8.660;2022-11-02T15:05:25;100768.09;;;14.18;50.83
58644;BME280;44411;49.994;8.660;2022-11-02T15:08:00;100772.78;;;14.18;50.50
58644;BME280;44411;49.994;8.660;2022-11-02T15:16:13;100772.41;;;14.06;53.23
58644;BME280;44411;49.994;8.660;2022-11-02T15:18:34;100766.94;;;13.87;53.52
58644;BME280;44411;49.994;8.660;2022-11-02T15:23:54;100767.09;;;13.76;54.12
58644;BME280;44411;49.994;8.660;2022-11-02T15:26:50;100755.59;;;13.55;55.61
58644;BME280;44411;49.994;8.660;2022-11-02T15:31:58;100755.03;;;13.34;56.97
58644;BME280;44411;49.994;8.660;2022-11-02T15:34:38;100761.66;;;13.28;57.20
58644;BME280;44411;49.994;8.660;2022-11-02T15:37:06;100758.03;;;13.09;57.58
58644;BME280;44411;49.994;8.660;2022-11-02T15:39:32;100760.50;;;13.10;56.79
58644;BME280;44411;49.994;8.660;2022-11-02T15:42:13;100763.63;;;12.98;58.46
58644;BME280;44411;49.994;8.660;2022-11-02T15:50:38;100767.13;;;12.45;60.92
58644;BME280;44411;49.994;8.660;2022-11-02T16:03:29;100752.03;;;11.74;63.30
58644;BME280;44411;49.994;8.660;2022-11-02T16:05:55;100744.97;;;11.63;63.95
58644;BME280;44411;49.994;8.660;2022-11-02T16:08:21;100754.34;;;11.51;64.23
58644;BME280;44411;49.994;8.660;2022-11-02T16:10:48;100747.84;;;11.37;63.60
58644;BME280;44411;49.994;8.660;2022-11-02T16:13:15;100755.00;;;11.23;66.53
58644;BME280;44411;49.994;8.660;2022-11-02T16:15:43;100754.50;;;11.05;64.11
58644;BME280;44411;49.994;8.660;2022-11-02T16:20:47;100744.47;;;10.75;67.46
58644;BME280;44411;49.994;8.660;2022-11-02T16:23:21;100742.56;;;10.65;67.01
58644;BME280;44411;49.994;8.660;2022-11-02T16:25:49;100735.22;;;10.45;69.40
58644;BME280;44411;49.994;8.660;2022-11-02T16:31:12;100739.59;;;10.31;69.37
58644;BME280;44411;49.994;8.660;2022-11-02T16:33:42;100737.41;;;10.28;70.59
58644;BME280;44411;49.994;8.660;2022-11-02T16:36:10;100728.38;;;10.22;70.46
58644;BME280;44411;49.994;8.660;2022-11-02T16:38:37;100722.38;;;10.25;70.52
58644;BME280;44411;49.994;8.660;2022-11-02T16:41:06;100731.66;;;10.14;70.97
58644;BME280;44411;49.994;8.660;2022-11-02T16:43:34;100733.56;;;10.08;70.65
58644;BME280;44411;49.994;8.660;2022-11-02T16:46:02;100733.56;;;10.03;71.55
58644;BME280;44411;49.994;8.660;2022-11-02T16:48:32;100736.53;;;9.96;70.28
58644;BME280;44411;49.994;8.660;2022-11-02T16:53:28;100735.47;;;9.97;71.87
58644;BME280;44411;49.994;8.660;2022-11-02T16:55:55;100737.63;;;9.85;72.02
58644;BME280;44411;49.994;8.660;2022-11-02T16:58:27;100743.34;;;9.84;72.44
58644;BME280;44411;49.994;8.660;2022-11-02T17:01:02;100732.69;;;9.72;73.56
58644;BME280;44411;49.994;8.660;2022-11-02T17:03:31;100735.38;;;9.56;74.67
58644;BME280;44411;49.994;8.660;2022-11-02T17:06:00;100730.69;;;9.41;75.37
58644;BME280;44411;49.994;8.660;2022-11-02T17:08:30;100732.00;;;9.29;75.43
58644;BME280;44411;49.994;8.660;2022-11-02T17:10:59;100737.97;;;9.26;75.49
58644;BME280;44411;49.994;8.660;2022-11-02T17:13:25;100719.97;;;9.14;75.02
58644;BME280;44411;49.994;8.660;2022-11-02T17:15:53;100724.63;;;9.19;75.09
58644;BME280;44411;49.994;8.660;2022-11-02T17:20:46;100727.66;;;9.33;74.29
58644;BME280;44411;49.994;8.660;2022-11-02T17:23:31;100730.38;;;9.33;74.39
58644;BME280;44411;49.994;8.660;2022-11-02T17:26:27;100733.38;;;9.26;74.27
58644;BME280;44411;49.994;8.660;2022-11-02T17:31:54;100734.38;;;9.05;75.98
58644;BME280;44411;49.994;8.660;2022-11-02T17:34:25;100745.75;;;8.96;75.97
58644;BME280;44411;49.994;8.660;2022-11-02T17:36:50;100738.88;;;8.83;77.31
58644;BME280;44411;49.994;8.660;2022-11-02T17:39:18;100748.44;;;8.91;76.65
58644;BME280;44411;49.994;8.660;2022-11-02T17:41:46;100744.38;;;8.94;76.54
58644;BME280;44411;49.994;8.660;2022-11-02T17:44:32;100748.59;;;8.74;76.22
58644;BME280;44411;49.994;8.660;2022-11-02T17:46:58;100738.53;;;8.75;77.35
58644;BME280;44411;49.994;8.660;2022-11-02T17:49:23;100736.84;;;8.63;76.72
58644;BME280;44411;49.994;8.660;2022-11-02T17:51:48;100734.31;;;8.52;77.49
58644;BME280;44411;49.994;8.660;2022-11-02T17:54:14;100735.44;;;8.56;78.09
58644;BME280;44411;49.994;8.660;2022-11-02T17:56:39;100729.34;;;8.43;76.51
58644;BME280;44411;49.994;8.660;2022-11-02T17:59:06;100732.78;;;8.34;77.82
58644;BME280;44411;49.994;8.660;2022-11-02T18:01:32;100731.34;;;8.21;79.10
58644;BME280;44411;49.994;8.660;2022-11-02T18:03:57;100717.94;;;8.14;78.35
58644;BME280;44411;49.994;8.660;2022-11-02T18:06:23;100719.84;;;8.14;77.70
58644;BME280;44411;49.994;8.660;2022-11-02T18:08:48;100713.13;;;8.21;78.33
58644;BME280;44411;49.994;8.660;2022-11-02T18:11:32;100722.69;;;8.29;79.17
58644;BME280;44411;49.994;8.660;2022-11-02T18:13:57;100721.28;;;8.21;78.93
58644;BME280;44411;49.994;8.660;2022-11-02T18:16:22;100714.41;;;8.14;79.43
58644;BME280;44411;49.994;8.660;2022-11-02T18:18:48;100714.56;;;8.02;80.08
58644;BME280;44411;49.994;8.660;2022-11-02T18:21:13;100719.72;;;7.98;80.61
58644;BME280;44411;49.994;8.660;2022-11-02T18:23:39;100728.94;;;7.97;81.31
58644;BME280;44411;49.994;8.660;2022-11-02T18:26:06;100721.78;;;7.86;81.40
58644;BME280;44411;49.994;8.660;2022-11-02T18:28:32;100720.34;;;7.78;81.18
58644;BME280;44411;49.994;8.660;2022-11-02T18:30:58;100718.47;;;7.79;80.65
58644;BME280;44411;49.994;8.660;2022-11-02T18:33:23;100726.03;;;7.77;81.62
58644;BME280;44411;49.994;8.660;2022-11-02T18:35:48;100720.88;;;7.75;80.71
58644;BME280;44411;49.994;8.660;2022-11-02T18:38:14;100730.31;;;7.73;80.97
58644;BME280;44411;49.994;8.660;2022-11-02T18:40:39;100727.13;;;7.76;80.82
58644;BME280;44411;49.994;8.660;2022-11-02T18:43:05;100711.84;;;7.69;80.35
58644;BME280;44411;49.994;8.660;2022-11-02T18:45:31;100714.59;;;7.75;80.71
58644;BME280;44411;49.994;8.660;2022-11-02T18:47:56;100703.94;;;7.68;80.65
58644;BME280;44411;49.994;8.660;2022-11-02T18:50:21;100707.41;;;7.63;79.54
58644;BME280;44411;49.994;8.660;2022-11-02T18:52:48;100713.16;;;7.67;80.10
58644;BME280;44411;49.994;8.660;2022-11-02T18:55:15;100712.91;;;7.68;79.40
58644;BME280;44411;49.994;8.660;2022-11-02T18:57:40;100705.81;;;7.62;80.95
58644;BME280;44411;49.994;8.660;2022-11-02T19:00:06;100711.94;;;7.53;80.90
58644;BME280;44411;49.994;8.660;2022-11-02T19:02:32;100704.94;;;7.35;79.41
58644;BME280;44411;49.994;8.660;2022-11-02T19:04:57;100707.66;;;7.35;80.72
58644;BME280;44411;49.994;8.660;2022-11-02T19:07:23;100714.47;;;7.37;80.51
58644;BME280;44411;49.994;8.660;2022-11-02T19:10:07;100708.19;;;7.32;80.21
58644;BME280;44411;49.994;8.660;2022-11-02T19:12:32;100704.13;;;7.34;80.03
58644;BME280;44411;49.994;8.660;2022-11-02T19:14:58;100692.94;;;7.30;80.98
58644;BME280;44411;49.994;8.660;2022-11-02T19:17:24;100692.63;;;7.27;82.39
58644;BME280;44411;49.994;8.660;2022-11-02T19:19:50;100691.81;;;7.26;82.82
58644;BME280;44411;49.994;8.660;2022-11-02T19:22:21;100704.84;;;7.24;83.06
58644;BME280;44411;49.994;8.660;2022-11-02T19:24:46;100699.59;;;7.18;82.97
58644;BME280;44411;49.994;8.660;2022-11-02T19:27:23;100692.72;;;7.10;83.33
58644;BME280;44411;49.994;8.660;2022-11-02T19:29:49;100696.25;;;7.10;83.46
58644;BME280;44411;49.994;8.660;2022-11-02T19:32:16;100688.91;;;7.11;83.69
58644;BME280;44411;49.994;8.660;2022-11-02T19:34:44;100689.69;;;7.06;83.04
58644;BME280;44411;49.994;8.660;2022-11-02T19:37:10;100684.19;;;7.01;83.35
58644;BME280;44411;49.994;8.660;2022-11-02T19:39:35;100678.19;;;6.77;81.72
58644;BME280;44411;49.994;8.660;2022-11-02T19:42:01;100678.63;;;6.91;83.27
58644;BME280;44411;49.994;8.660;2022-11-02T19:44:28;100676.78;;;6.97;83.56
58644;BME280;44411;49.994;8.660;2022-11-02T19:46:53;100680.59;;;6.96;83.51
58644;BME280;44411;49.994;8.660;2022-11-02T19:49:18;100673.22;;;6.91;84.04
58644;BME280;44411;49.994;8.660;2022-11-02T19:51:44;100674.84;;;6.92;83.64
58644;BME280;44411;49.994;8.660;2022-11-02T19:54:09;100677.69;;;6.80;83.56
58644;BME280;44411;49.994;8.660;2022-11-02T19:56:35;100675.25;;;6.79;83.32
58644;BME280;44411;49.994;8.660;2022-11-02T19:59:03;100678.38;;;6.70;84.20
58644;BME280;44411;49.994;8.660;2022-11-02T20:01:39;100668.16;;;6.78;84.62
58644;BME280;44411;49.994;8.660;2022-11-02T20:04:06;100656.44;;;6.72;84.79
58644;BME280;44411;49.994;8.660;2022-11-02T20:08:59;100661.78;;;6.89;84.51
58644;BME280;44411;49.994;8.660;2022-11-02T20:11:26;100659.38;;;6.70;82.82
58644;BME280;44411;49.994;8.660;2022-11-02T20:13:53;100658.88;;;6.51;84.06
58644;BME280;44411;49.994;8.660;2022-11-02T20:16:19;100659.31;;;6.65;85.52
58644;BME280;44411;49.994;8.660;2022-11-02T20:18:47;100664.72;;;6.82;84.67
58644;BME280;44411;49.994;8.660;2022-11-02T20:21:20;100663.56;;;6.78;84.65
58644;BME280;44411;49.994;8.660;2022-11-02T20:23:46;100663.88;;;6.82;84.58
58644;BME280;44411;49.994;8.660;2022-11-02T20:28:41;100666.19;;;6.73;85.17
58644;BME280;44411;49.994;8.660;2022-11-02T20:31:13;100672.47;;;6.73;85.23
58644;BME280;44411;49.994;8.660;2022-11-02T20:33:39;100662.09;;;6.70;85.49
58644;BME280;44411;49.994;8.660;2022-11-02T20:36:06;100670.56;;;6.74;85.54
58644;BME280;44411;49.994;8.660;2022-11-02T20:38:32;100658.66;;;6.75;85.66
58644;BME280;44411;49.994;8.660;2022-11-02T20:41:15;100654.91;;;6.81;85.45
58644;BME280;44411;49.994;8.660;2022-11-02T20:43:42;100664.41;;;6.79;85.16
58644;BME280;44411;49.994;8.660;2022-11-02T20:48:36;100654.28;;;6.74;85.76
58644;BME280;44411;49.994;8.660;2022-11-02T20:51:02;100654.22;;;6.69;84.93
58644;BME280;44411;49.994;8.660;2022-11-02T20:53:28;100645.13;;;6.80;85.93
58644;BME280;44411;49.994;8.660;2022-11-02T20:55:53;100641.81;;;6.95;85.21
58644;BME280;44411;49.994;8.660;2022-11-02T20:58:19;100646.69;;;6.93;84.29
58644;BME280;44411;49.994;8.660;2022-11-02T21:00:45;100649.44;;;6.76;83.37
58644;BME280;44411;49.994;8.660;2022-11-02T21:03:11;100640.41;;;6.70;85.71
58644;BME280;44411;49.994;8.660;2022-11-02T21:05:37;100651.00;;;6.72;86.22
58644;BME280;44411;49.994;8.660;2022-11-02T21:08:02;100638.97;;;6.63;85.55
58644;BME280;44411;49.994;8.660;2022-11-02T21:10:27;100634.09;;;6.65;85.92
58644;BME280;44411;49.994;8.660;2022-11-02T21:12:53;100638.91;;;6.80;86.25
58644;BME280;44411;49.994;8.660;2022-11-02T21:15:37;100631.47;;;6.92;85.41
58644;BME280;44411;49.994;8.660;2022-11-02T21:18:02;100629.63;;;6.98;85.38
58644;BME280;44411;49.994;8.660;2022-11-02T21:20:28;100617.41;;;6.95;85.77
58644;BME280;44411;49.994;8.660;2022-11-02T21:22:53;100619.47;;;6.88;84.69
58644;BME280;44411;49.994;8.660;2022-11-02T21:25:22;100621.41;;;6.92;85.45
58644;BME280;44411;49.994;8.660;2022-11-02T21:27:49;100620.03;;;6.90;86.43
58644;BME280;44411;49.994;8.660;2022-11-02T21:30:15;100625.22;;;6.91;86.35
58644;BME280;44411;49.994;8.660;2022-11-02T21:32:40;100616.25;;;6.91;86.79
58644;BME280;44411;49.994;8.660;2022-11-02T21:35:06;100617.00;;;6.86;86.76
58644;BME280;44411;49.994;8.660;2022-11-02T21:37:32;100619.97;;;6.85;86.36
58644;BME280;44411;49.994;8.660;2022-11-02T21:39:57;100616.38;;;6.79;86.51
58644;BME280;44411;49.994;8.660;2022-11-02T21:42:22;100610.91;;;6.74;86.70